createdAt,value
2023-06-18T00:01:18.759Z,21.28
2023-06-18T00:03:47.294Z,21.24
2023-06-18T00:06:16.811Z,21.23
2023-06-18T00:08:44.940Z,21.20
2023-06-18T00:11:13.434Z,21.15
2023-06-18T00:13:41.583Z,21.09
2023-06-18T00:16:09.712Z,21.07
2023-06-18T00:18:38.269Z,21.05
2023-06-18T00:21:08.821Z,21.03
2023-06-18T00:23:38.709Z,20.97
2023-06-18T00:26:07.029Z,20.88
2023-06-18T00:28:35.089Z,20.79
2023-06-18T00:31:03.624Z,20.89
2023-06-18T00:33:34.626Z,20.84
2023-06-18T00:36:07.814Z,20.77
2023-06-18T00:38:38.855Z,20.77
2023-06-18T00:41:06.862Z,20.76
2023-06-18T00:43:34.971Z,20.75
2023-06-18T00:46:06.575Z,20.75
2023-06-18T00:48:37.214Z,20.85
2023-06-18T00:51:05.802Z,20.65
2023-06-18T00:53:34.806Z,20.62
2023-06-18T00:56:04.388Z,20.58
2023-06-18T00:58:33.023Z,20.58
2023-06-18T01:01:01.174Z,20.56
2023-06-18T01:03:33.866Z,20.55
2023-06-18T01:06:03.668Z,20.52
2023-06-18T01:08:34.585Z,20.56
2023-06-18T01:11:06.526Z,20.54
2023-06-18T01:13:37.623Z,20.49
2023-06-18T01:16:09.322Z,20.49
2023-06-18T01:18:42.718Z,20.53
2023-06-18T01:21:12.495Z,20.53
2023-06-18T01:23:50.659Z,20.53
2023-06-18T01:26:22.059Z,20.51
2023-06-18T01:28:53.098Z,20.52
2023-06-18T01:31:23.134Z,20.53
2023-06-18T01:33:54.615Z,20.51
2023-06-18T01:36:35.570Z,20.52
2023-06-18T01:39:09.138Z,20.54
2023-06-18T01:41:44.704Z,20.51
2023-06-18T01:44:20.068Z,20.54
2023-06-18T01:46:53.125Z,20.53
2023-06-18T01:49:22.566Z,20.51
2023-06-18T01:51:53.270Z,20.51
2023-06-18T01:54:24.586Z,20.45
2023-06-18T01:56:54.591Z,20.42
2023-06-18T01:59:22.633Z,20.39
2023-06-18T02:01:50.617Z,20.38
2023-06-18T02:04:19.088Z,20.34
2023-06-18T02:06:47.389Z,20.31
2023-06-18T02:09:16.185Z,20.27
2023-06-18T02:11:44.464Z,20.23
2023-06-18T02:14:14.161Z,20.24
2023-06-18T02:16:42.239Z,20.20
2023-06-18T02:19:11.358Z,20.16
2023-06-18T02:21:39.356Z,20.15
2023-06-18T02:24:07.629Z,20.16
2023-06-18T02:26:36.007Z,20.16
2023-06-18T02:29:04.048Z,20.15
2023-06-18T02:31:33.378Z,20.13
2023-06-18T02:34:03.342Z,20.07
2023-06-18T02:36:33.509Z,20.05
2023-06-18T02:39:02.411Z,20.06
2023-06-18T02:41:30.467Z,20.05
2023-06-18T02:43:58.575Z,20.08
2023-06-18T02:46:26.987Z,19.93
2023-06-18T02:48:56.445Z,19.75
2023-06-18T02:51:24.571Z,19.53
2023-06-18T02:53:53.009Z,19.41
2023-06-18T02:56:21.052Z,19.29
2023-06-18T02:58:57.178Z,19.21
2023-06-18T03:01:25.945Z,19.17
2023-06-18T03:03:55.913Z,19.20
2023-06-18T03:06:25.336Z,19.23
2023-06-18T03:08:54.547Z,19.26
2023-06-18T03:11:23.866Z,19.29
2023-06-18T03:13:52.421Z,19.30
2023-06-18T03:16:22.287Z,19.32
2023-06-18T03:18:50.460Z,19.33
2023-06-18T03:21:20.428Z,19.33
2023-06-18T03:23:49.468Z,19.33
2023-06-18T03:26:17.917Z,19.40
2023-06-18T03:28:46.214Z,19.46
2023-06-18T03:31:14.614Z,19.55
2023-06-18T03:33:42.783Z,19.58
2023-06-18T03:36:18.768Z,19.65
2023-06-18T03:38:48.907Z,19.67
2023-06-18T03:41:17.090Z,19.72
2023-06-18T03:43:45.105Z,19.75
2023-06-18T03:46:13.526Z,19.75
2023-06-18T03:48:44.263Z,19.78
2023-06-18T03:51:13.418Z,19.82
2023-06-18T03:53:43.180Z,19.87
2023-06-18T03:56:12.890Z,19.91
2023-06-18T03:58:42.423Z,19.95
2023-06-18T04:01:10.755Z,19.99
2023-06-18T04:03:39.378Z,20.04
2023-06-18T04:06:08.604Z,20.12
2023-06-18T04:08:37.807Z,20.19
2023-06-18T04:11:06.148Z,20.28
2023-06-18T04:13:36.573Z,20.35
2023-06-18T04:16:04.620Z,20.42
2023-06-18T04:18:33.384Z,20.50
2023-06-18T04:21:01.462Z,20.54
2023-06-18T04:23:30.026Z,20.52
2023-06-18T04:25:58.360Z,20.52
2023-06-18T04:28:26.644Z,20.48
2023-06-18T04:30:56.029Z,20.57
2023-06-18T04:33:24.596Z,20.43
2023-06-18T04:35:52.671Z,20.52
2023-06-18T04:38:22.710Z,20.58
2023-06-18T04:40:51.762Z,20.66
2023-06-18T04:43:20.788Z,20.75
2023-06-18T04:45:49.795Z,20.82
2023-06-18T04:48:20.748Z,20.89
2023-06-18T04:50:49.495Z,20.98
2023-06-18T04:53:18.908Z,21.07
2023-06-18T04:55:47.841Z,21.15
2023-06-18T04:58:16.183Z,21.26
2023-06-18T05:00:45.306Z,21.34
2023-06-18T05:03:14.766Z,21.44
2023-06-18T05:05:45.172Z,21.56
2023-06-18T05:08:13.701Z,21.65
2023-06-18T05:10:42.716Z,21.75
2023-06-18T05:13:12.515Z,21.87
2023-06-18T05:15:41.154Z,21.97
2023-06-18T05:18:09.452Z,22.08
2023-06-18T05:20:37.853Z,22.19
2023-06-18T05:23:07.810Z,22.26
2023-06-18T05:25:38.739Z,22.33
2023-06-18T05:28:07.240Z,22.43
2023-06-18T05:30:35.739Z,22.53
2023-06-18T05:33:03.838Z,22.61
2023-06-18T05:35:32.640Z,22.73
2023-06-18T05:38:00.766Z,22.86
2023-06-18T05:40:30.284Z,22.97
2023-06-18T05:42:59.225Z,23.08
2023-06-18T05:45:27.936Z,23.15
2023-06-18T05:47:56.773Z,23.30
2023-06-18T05:50:27.633Z,23.41
2023-06-18T05:52:56.798Z,23.53
2023-06-18T05:55:25.696Z,23.61
2023-06-18T05:57:55.744Z,23.72
2023-06-18T06:00:25.327Z,23.86
2023-06-18T06:02:54.017Z,23.93
2023-06-18T06:05:22.687Z,24.08
2023-06-18T06:07:50.989Z,24.08
2023-06-18T06:10:21.318Z,24.22
2023-06-18T06:12:51.143Z,24.42
2023-06-18T06:15:25.236Z,24.62
2023-06-18T06:17:54.437Z,24.72
2023-06-18T06:20:24.022Z,24.83
2023-06-18T06:22:53.559Z,24.85
2023-06-18T06:25:22.756Z,24.89
2023-06-18T06:27:55.036Z,25.00
2023-06-18T06:30:26.195Z,25.10
2023-06-18T06:32:56.724Z,25.20
2023-06-18T06:35:26.167Z,25.32
2023-06-18T06:37:57.033Z,25.39
2023-06-18T06:40:27.387Z,25.45
2023-06-18T06:42:57.226Z,25.63
2023-06-18T06:45:29.385Z,25.69
2023-06-18T06:48:10.771Z,25.83
2023-06-18T06:50:43.611Z,26.00
2023-06-18T06:53:13.937Z,26.07
2023-06-18T06:58:39.756Z,26.40
2023-06-18T07:01:09.752Z,26.64
2023-06-18T07:03:38.403Z,26.78
2023-06-18T07:06:08.123Z,26.77
2023-06-18T07:08:36.733Z,26.76
2023-06-18T07:11:05.024Z,27.06
2023-06-18T07:13:33.206Z,27.19
2023-06-18T07:16:01.579Z,27.43
2023-06-18T07:18:31.220Z,27.67
2023-06-18T07:20:59.905Z,27.73
2023-06-18T07:23:28.246Z,27.76
2023-06-18T07:25:56.329Z,27.86
2023-06-18T07:28:27.650Z,27.83
2023-06-18T07:30:56.259Z,28.00
2023-06-18T07:33:24.401Z,28.26
2023-06-18T07:35:54.075Z,28.39
2023-06-18T07:38:23.582Z,28.38
2023-06-18T07:40:52.044Z,28.54
2023-06-18T07:43:20.537Z,28.73
2023-06-18T07:45:49.015Z,28.75
2023-06-18T07:48:17.312Z,28.84
2023-06-18T07:50:45.711Z,28.98
2023-06-18T07:53:15.823Z,29.09
2023-06-18T07:55:43.986Z,29.34
2023-06-18T07:58:12.199Z,29.51
2023-06-18T08:00:40.660Z,29.62
2023-06-18T08:03:09.531Z,29.57
2023-06-18T08:05:37.894Z,29.57
2023-06-18T08:08:06.270Z,29.76
2023-06-18T08:10:36.149Z,29.90
2023-06-18T08:13:04.515Z,30.09
2023-06-18T08:15:32.839Z,30.36
2023-06-18T08:18:01.403Z,30.40
2023-06-18T08:20:29.780Z,30.56
2023-06-18T08:22:58.298Z,30.75
2023-06-18T08:25:27.156Z,30.80
2023-06-18T08:27:57.721Z,30.93
2023-06-18T08:30:26.223Z,30.98
2023-06-18T08:32:57.498Z,31.06
2023-06-18T08:35:25.852Z,31.12
2023-06-18T08:37:54.496Z,31.30
2023-06-18T08:40:25.964Z,31.32
2023-06-18T08:43:06.667Z,31.33
2023-06-18T08:45:36.037Z,31.42
2023-06-18T08:48:15.607Z,31.45
2023-06-18T08:51:04.785Z,31.48
2023-06-18T08:53:43.142Z,31.69
2023-06-18T08:56:11.423Z,31.94
2023-06-18T08:58:47.835Z,32.02
2023-06-18T09:01:16.941Z,32.12
2023-06-18T09:03:46.289Z,32.24
2023-06-18T09:06:14.769Z,32.26
2023-06-18T09:08:42.959Z,32.23
2023-06-18T09:11:13.382Z,32.20
2023-06-18T09:13:45.012Z,32.44
2023-06-18T09:16:14.253Z,32.44
2023-06-18T09:18:42.974Z,32.59
2023-06-18T09:21:12.967Z,32.40
2023-06-18T09:23:42.409Z,32.59
2023-06-18T09:26:14.781Z,32.75
2023-06-18T09:28:44.871Z,32.52
2023-06-18T09:31:13.037Z,32.59
2023-06-18T09:33:41.325Z,32.69
2023-06-18T09:36:10.875Z,33.03
2023-06-18T09:38:40.165Z,33.35
2023-06-18T09:41:13.792Z,33.43
2023-06-18T09:43:45.169Z,33.52
2023-06-18T09:46:14.652Z,33.51
2023-06-18T09:48:45.761Z,33.61
2023-06-18T09:51:16.429Z,33.63
2023-06-18T09:53:46.727Z,33.76
2023-06-18T09:56:15.917Z,33.70
2023-06-18T09:58:50.058Z,33.78
2023-06-18T10:01:19.374Z,33.78
2023-06-18T10:03:49.137Z,33.83
2023-06-18T10:06:19.004Z,33.83
2023-06-18T10:08:49.301Z,33.85
2023-06-18T10:11:18.819Z,34.00
2023-06-18T10:13:50.606Z,34.21
2023-06-18T10:16:20.362Z,34.41
2023-06-18T10:19:04.085Z,34.51
2023-06-18T10:21:37.878Z,34.39
2023-06-18T10:24:18.062Z,34.51
2023-06-18T10:26:48.009Z,34.44
2023-06-18T10:29:17.825Z,34.55
2023-06-18T10:31:47.757Z,34.30
2023-06-18T10:34:17.185Z,34.45
2023-06-18T10:36:46.687Z,34.42
2023-06-18T10:39:24.561Z,34.60
2023-06-18T10:41:53.899Z,34.91
2023-06-18T10:44:36.177Z,35.10
2023-06-18T10:47:22.214Z,34.77
2023-06-18T10:50:11.766Z,34.68
2023-06-18T10:52:40.926Z,34.99
2023-06-18T10:55:09.724Z,35.04
2023-06-18T10:57:38.740Z,35.18
2023-06-18T11:00:18.394Z,35.43
2023-06-18T11:02:47.740Z,35.50
2023-06-18T11:05:17.725Z,35.57
2023-06-18T11:08:00.320Z,35.58
2023-06-18T11:10:33.854Z,35.26
2023-06-18T11:13:04.034Z,35.24
2023-06-18T11:15:35.222Z,35.20
2023-06-18T11:18:04.249Z,35.28
2023-06-18T11:20:36.246Z,35.18
2023-06-18T11:23:06.278Z,35.29
2023-06-18T11:25:35.138Z,35.06
2023-06-18T11:28:04.400Z,35.18
2023-06-18T11:30:34.507Z,35.24
2023-06-18T11:33:03.263Z,35.41
2023-06-18T11:35:32.327Z,35.62
2023-06-18T11:38:00.888Z,35.46
2023-06-18T11:40:29.337Z,35.34
2023-06-18T11:42:57.434Z,35.63
2023-06-18T11:45:25.929Z,35.36
2023-06-18T11:47:56.003Z,35.46
2023-06-18T11:50:27.496Z,35.56
2023-06-18T11:52:56.110Z,35.81
2023-06-18T11:55:24.644Z,35.77
2023-06-18T11:57:58.296Z,35.99
2023-06-18T12:00:26.741Z,36.30
2023-06-18T12:02:56.637Z,36.25
2023-06-18T12:05:24.992Z,36.24
2023-06-18T12:07:53.128Z,36.17
2023-06-18T12:10:22.131Z,35.83
2023-06-18T12:12:58.141Z,36.03
2023-06-18T12:15:34.959Z,35.90
2023-06-18T12:18:10.389Z,36.22
2023-06-18T12:20:39.400Z,36.34
2023-06-18T12:23:07.552Z,36.09
2023-06-18T12:25:36.701Z,35.95
2023-06-18T12:28:05.974Z,36.30
2023-06-18T12:30:37.681Z,36.66
2023-06-18T12:33:09.174Z,37.00
2023-06-18T12:35:38.615Z,36.88
2023-06-18T12:38:09.456Z,36.77
2023-06-18T12:40:47.919Z,36.65
2023-06-18T12:43:18.501Z,36.42
2023-06-18T12:45:48.756Z,36.49
2023-06-18T12:48:22.210Z,36.33
2023-06-18T12:50:52.274Z,36.49
2023-06-18T12:53:22.706Z,36.54
2023-06-18T12:55:54.348Z,36.69
2023-06-18T12:58:25.321Z,36.65
2023-06-18T13:00:55.486Z,36.62
2023-06-18T13:03:28.331Z,36.59
2023-06-18T13:05:58.649Z,36.98
2023-06-18T13:08:27.405Z,36.99
2023-06-18T13:10:57.656Z,36.97
2023-06-18T13:13:25.906Z,36.94
2023-06-18T13:15:54.458Z,36.62
2023-06-18T13:18:23.238Z,36.55
2023-06-18T13:20:55.338Z,36.71
2023-06-18T13:23:23.855Z,36.84
2023-06-18T13:25:56.139Z,37.08
2023-06-18T13:28:24.737Z,36.99
2023-06-18T13:30:52.892Z,37.26
2023-06-18T13:33:21.075Z,37.65
2023-06-18T13:35:49.673Z,37.97
2023-06-18T13:38:19.303Z,38.19
2023-06-18T13:40:47.768Z,38.37
2023-06-18T13:43:16.339Z,38.20
2023-06-18T13:45:44.523Z,38.10
2023-06-18T13:48:13.559Z,37.99
2023-06-18T13:50:42.108Z,38.08
2023-06-18T13:53:11.322Z,38.31
2023-06-18T13:55:40.937Z,38.11
2023-06-18T13:58:09.461Z,37.88
2023-06-18T14:00:37.616Z,38.01
2023-06-18T14:03:06.198Z,37.99
2023-06-18T14:05:37.019Z,38.15
2023-06-18T14:08:06.263Z,38.20
2023-06-18T14:10:34.412Z,38.40
2023-06-18T14:13:03.854Z,38.53
2023-06-18T14:15:32.835Z,38.71
2023-06-18T14:18:01.034Z,38.71
2023-06-18T14:20:29.182Z,38.85
2023-06-18T14:22:57.610Z,39.00
2023-06-18T14:25:26.487Z,38.95
2023-06-18T14:27:54.506Z,38.83
2023-06-18T14:30:24.340Z,39.08
2023-06-18T14:32:52.581Z,39.44
2023-06-18T14:35:21.499Z,39.69
2023-06-18T14:37:50.494Z,39.99
2023-06-18T14:40:18.676Z,40.04
2023-06-18T14:42:47.092Z,40.05
2023-06-18T14:45:15.950Z,39.69
2023-06-18T14:47:45.759Z,40.05
2023-06-18T14:50:15.462Z,40.38
2023-06-18T14:52:44.012Z,40.62
2023-06-18T14:55:13.794Z,40.87
2023-06-18T14:57:42.236Z,41.03
2023-06-18T15:00:12.099Z,40.96
2023-06-18T15:02:41.044Z,40.82
2023-06-18T15:05:10.991Z,40.88
2023-06-18T15:07:39.770Z,40.92
2023-06-18T15:10:08.746Z,41.07
2023-06-18T15:12:37.024Z,41.30
2023-06-18T15:15:06.083Z,41.59
2023-06-18T15:17:34.262Z,41.89
2023-06-18T15:20:02.552Z,41.82
2023-06-18T15:22:32.255Z,41.81
2023-06-18T15:25:00.571Z,41.96
2023-06-18T15:27:28.659Z,42.21
2023-06-18T15:29:57.284Z,42.54
2023-06-18T15:32:26.185Z,42.76
2023-06-18T15:34:54.423Z,42.97
2023-06-18T15:37:22.815Z,43.23
2023-06-18T15:39:52.213Z,43.56
2023-06-18T15:42:20.816Z,43.75
2023-06-18T15:44:49.266Z,43.50
2023-06-18T15:47:17.976Z,43.17
2023-06-18T15:49:46.073Z,43.39
2023-06-18T15:52:16.177Z,43.54
2023-06-18T15:54:44.369Z,43.58
2023-06-18T15:57:13.864Z,43.95
2023-06-18T15:59:42.182Z,44.31
2023-06-18T16:02:10.751Z,44.60
2023-06-18T16:04:39.320Z,44.87
2023-06-18T16:07:07.500Z,45.14
2023-06-18T16:09:37.127Z,45.14
2023-06-18T16:12:06.281Z,45.05
2023-06-18T16:14:36.103Z,44.80
2023-06-18T16:17:05.049Z,44.47
2023-06-18T16:19:33.587Z,44.17
2023-06-18T16:22:01.757Z,44.30
2023-06-18T16:24:29.855Z,44.31
2023-06-18T16:27:00.939Z,44.40
2023-06-18T16:29:28.897Z,44.73
2023-06-18T16:31:58.362Z,45.09
2023-06-18T16:34:26.715Z,45.40
2023-06-18T16:36:54.674Z,45.64
2023-06-18T16:39:22.729Z,45.79
2023-06-18T16:41:51.023Z,45.73
2023-06-18T16:44:19.135Z,45.43
2023-06-18T16:46:48.729Z,45.24
2023-06-18T16:49:18.384Z,45.00
2023-06-18T16:51:47.835Z,45.29
2023-06-18T16:54:16.126Z,45.54
2023-06-18T16:56:44.593Z,45.73
2023-06-18T16:59:12.677Z,45.84
2023-06-18T17:01:40.967Z,45.73
2023-06-18T17:04:09.394Z,45.60
2023-06-18T17:06:38.926Z,45.79
2023-06-18T17:09:07.101Z,46.16
2023-06-18T17:11:35.574Z,46.26
2023-06-18T17:14:03.652Z,46.18
2023-06-18T17:16:31.816Z,46.20
2023-06-18T17:19:00.183Z,46.18
2023-06-18T17:21:28.541Z,46.32
2023-06-18T17:24:01.468Z,46.09
2023-06-18T17:26:31.245Z,46.19
2023-06-18T17:28:59.659Z,46.28
2023-06-18T17:31:28.091Z,46.45
2023-06-18T17:33:56.660Z,46.32
2023-06-18T17:36:24.752Z,46.28
2023-06-18T17:38:53.295Z,46.07
2023-06-18T17:41:22.953Z,46.07
2023-06-18T17:43:51.013Z,46.08
2023-06-18T17:46:21.543Z,46.12
2023-06-18T17:48:50.875Z,46.08
2023-06-18T17:51:19.638Z,45.85
2023-06-18T17:53:47.909Z,45.45
2023-06-18T17:56:16.283Z,45.26
2023-06-18T17:58:48.611Z,45.40
2023-06-18T18:01:17.167Z,45.22
2023-06-18T18:03:46.744Z,45.06
2023-06-18T18:06:24.182Z,45.03
2023-06-18T18:09:06.132Z,44.98
2023-06-18T18:11:37.625Z,44.90
2023-06-18T18:14:08.318Z,44.78
2023-06-18T18:16:38.072Z,44.52
2023-06-18T18:19:06.656Z,43.71
2023-06-18T18:21:36.924Z,42.60
2023-06-18T18:24:05.087Z,41.55
2023-06-18T18:26:47.213Z,40.60
2023-06-18T18:29:17.902Z,39.79
2023-06-18T18:31:46.816Z,38.96
2023-06-18T18:34:14.959Z,38.27
2023-06-18T18:36:43.062Z,37.71
2023-06-18T18:39:11.507Z,37.25
2023-06-18T18:41:39.559Z,36.77
2023-06-18T18:44:07.662Z,36.27
2023-06-18T18:46:37.881Z,35.86
2023-06-18T18:49:06.130Z,35.45
2023-06-18T18:51:34.455Z,35.11
2023-06-18T18:54:02.775Z,34.81
2023-06-18T18:56:30.953Z,34.52
2023-06-18T18:59:00.216Z,34.26
2023-06-18T19:01:28.641Z,34.01
2023-06-18T19:03:58.241Z,33.73
2023-06-18T19:06:26.346Z,33.49
2023-06-18T19:08:54.712Z,33.26
2023-06-18T19:11:22.841Z,33.03
2023-06-18T19:13:51.086Z,32.79
2023-06-18T19:16:20.739Z,32.60
2023-06-18T19:18:49.034Z,32.44
2023-06-18T19:21:18.743Z,32.25
2023-06-18T19:23:47.110Z,32.04
2023-06-18T19:26:15.341Z,31.84
2023-06-18T19:28:43.773Z,31.64
2023-06-18T19:31:12.286Z,31.38
2023-06-18T19:33:40.494Z,31.09
2023-06-18T19:36:08.892Z,30.86
2023-06-18T19:38:38.700Z,30.68
2023-06-18T19:41:06.996Z,30.49
2023-06-18T19:43:35.162Z,30.31
2023-06-18T19:46:03.648Z,30.10
2023-06-18T19:48:31.945Z,29.99
2023-06-18T19:51:00.578Z,29.88
2023-06-18T19:53:29.736Z,29.69
2023-06-18T19:56:01.895Z,29.50
2023-06-18T19:58:30.363Z,29.30
2023-06-18T20:00:58.477Z,29.19
2023-06-18T20:03:26.948Z,29.13
2023-06-18T20:05:57.764Z,28.96
2023-06-18T20:08:27.056Z,28.78
2023-06-18T20:10:55.179Z,28.54
2023-06-18T20:13:24.502Z,28.27
2023-06-18T20:15:52.902Z,28.02
2023-06-18T20:18:21.228Z,27.75
2023-06-18T20:20:49.475Z,27.63
2023-06-18T20:23:18.007Z,27.62
2023-06-18T20:25:46.046Z,27.53
2023-06-18T20:28:14.164Z,27.49
2023-06-18T20:30:43.929Z,27.47
2023-06-18T20:33:13.109Z,27.44
2023-06-18T20:35:41.341Z,27.43
2023-06-18T20:38:09.746Z,27.40
2023-06-18T20:40:37.815Z,27.42
2023-06-18T20:43:06.092Z,27.40
2023-06-18T20:45:34.494Z,27.35
2023-06-18T20:48:04.027Z,27.27
2023-06-18T20:50:32.412Z,27.05
2023-06-18T20:53:00.675Z,26.76
2023-06-18T20:55:28.888Z,26.61
2023-06-18T20:57:58.455Z,26.55
2023-06-18T21:00:27.806Z,26.63
2023-06-18T21:02:56.345Z,26.76
2023-06-18T21:05:25.844Z,26.86
2023-06-18T21:07:54.205Z,26.93
2023-06-18T21:10:23.974Z,27.00
2023-06-18T21:12:52.329Z,27.00
2023-06-18T21:15:20.742Z,26.98
2023-06-18T21:17:48.929Z,26.93
2023-06-18T21:20:17.268Z,26.87
2023-06-18T21:22:47.139Z,26.69
2023-06-18T21:25:15.677Z,26.33
2023-06-18T21:27:44.000Z,26.00
2023-06-18T21:30:13.771Z,25.81
2023-06-18T21:32:41.986Z,25.78
2023-06-18T21:35:10.978Z,25.84
2023-06-18T21:37:44.452Z,25.93
2023-06-18T21:40:15.405Z,25.98
2023-06-18T21:42:44.633Z,25.96
2023-06-18T21:45:13.405Z,26.00
2023-06-18T21:47:41.995Z,26.08
2023-06-18T21:50:11.426Z,26.09
2023-06-18T21:52:39.664Z,25.99
2023-06-18T21:55:09.122Z,26.00
2023-06-18T21:57:39.298Z,26.08
2023-06-18T22:00:10.779Z,26.13
2023-06-18T22:02:39.105Z,26.15
2023-06-18T22:05:07.771Z,26.16
2023-06-18T22:07:35.930Z,26.16
2023-06-18T22:10:04.104Z,26.19
2023-06-18T22:12:32.505Z,26.22
2023-06-18T22:15:01.979Z,26.24
2023-06-18T22:17:30.226Z,26.21
2023-06-18T22:19:58.618Z,26.21
2023-06-18T22:22:26.771Z,26.20
2023-06-18T22:24:54.850Z,26.17
2023-06-18T22:27:23.191Z,26.16
2023-06-18T22:29:53.494Z,26.08
2023-06-18T22:32:23.789Z,25.92
2023-06-18T22:34:52.347Z,25.83
2023-06-18T22:37:20.621Z,25.78
2023-06-18T22:39:48.713Z,25.73
2023-06-18T22:42:17.045Z,25.75
2023-06-18T22:44:45.170Z,25.77
2023-06-18T22:47:13.373Z,25.78
2023-06-18T22:49:43.046Z,25.78
2023-06-18T22:52:11.068Z,25.74
2023-06-18T22:54:39.192Z,25.74
2023-06-18T22:57:08.193Z,25.73
2023-06-18T22:59:36.264Z,25.73
2023-06-18T23:02:04.571Z,25.69
2023-06-18T23:04:32.897Z,25.66
2023-06-18T23:07:02.163Z,25.63
2023-06-18T23:09:30.218Z,25.59
2023-06-18T23:11:58.536Z,25.60
2023-06-18T23:14:26.597Z,25.62
2023-06-18T23:16:54.838Z,25.59
2023-06-18T23:19:23.188Z,25.57
2023-06-18T23:21:51.219Z,25.51
2023-06-18T23:24:21.201Z,25.45
2023-06-18T23:26:49.550Z,25.40
2023-06-18T23:29:20.376Z,25.38
2023-06-18T23:31:49.428Z,25.35
2023-06-18T23:34:27.305Z,25.29
2023-06-18T23:37:00.384Z,25.20
2023-06-18T23:39:30.308Z,25.09
2023-06-18T23:41:58.457Z,24.91
2023-06-18T23:44:26.549Z,24.83
2023-06-18T23:46:55.520Z,24.78
2023-06-18T23:49:23.724Z,24.69
2023-06-18T23:51:52.326Z,24.58
2023-06-18T23:54:20.725Z,24.50
2023-06-18T23:56:50.199Z,24.47
2023-06-18T23:59:18.519Z,24.42
